Time;durP1;ratioP1;P1;durP2;ratioP2;P2;SDS_P1;SDS_P2;PMS_P1;PMS_P2;Temp;Humidity;BMP_temperature;BMP_pressure;BME280_temperature;BME280_humidity;BME280_pressure;Samples;Min_cycle;Max_cycle;Signal;HPM_P1;HPM_P2
2022/01/24 00:00:07;;;;;;;19.00;11.30;;;25.90;2201.60;;;;;;5092594;28;20024;-60
2022/01/24 00:02:33;;;;;;;30.55;16.17;;;25.90;2201.60;;;;;;5092119;28;20478;-56
2022/01/24 00:04:59;;;;;;;19.75;11.00;;;25.80;2201.60;;;;;;5092808;28;20044;-60
2022/01/24 00:07:25;;;;;;;23.88;14.73;;;0.90;2201.60;;;;;;5092293;28;20039;-54
2022/01/24 00:09:54;;;;;;;35.63;20.60;;;25.60;2201.60;;;;;;5092121;28;20067;-57
2022/01/24 00:12:30;;;;;;;50.85;21.38;;;25.70;2201.60;;;;;;5092294;28;20034;-55
2022/01/24 00:17:47;;;;;;;31.45;14.70;;;25.80;2201.60;;;;;;5092656;28;20027;-54
2022/01/24 00:28:14;;;;;;;17.63;11.68;;;25.80;2201.60;;;;;;5092327;28;20027;-60
2022/01/24 00:30:40;;;;;;;23.75;12.68;;;25.80;2201.60;;;;;;5091508;28;20105;-60
2022/01/24 00:33:06;;;;;;;25.60;12.02;;;26.10;2201.60;;;;;;5091886;28;20450;-56
2022/01/24 00:35:32;;;;;;;30.02;13.63;;;26.00;2201.60;;;;;;5091905;28;20036;-54
2022/01/24 00:38:01;;;;;;;21.75;12.57;;;26.00;2201.60;;;;;;5091981;28;20020;-60
2022/01/24 00:40:28;;;;;;;23.00;12.88;;;25.80;2201.60;;;;;;5092040;28;20020;-59
2022/01/24 00:42:58;;;;;;;20.88;13.30;;;25.70;2201.60;;;;;;5091760;28;20535;-60
2022/01/24 00:55:57;;;;;;;22.98;12.00;;;25.60;2201.60;;;;;;5091914;28;20358;-60
2022/01/24 00:58:23;;;;;;;19.83;11.70;;;25.60;2201.60;;;;;;5091448;28;20028;-53
2022/01/24 01:00:49;;;;;;;22.70;12.75;;;25.70;2201.60;;;;;;5091586;28;20028;-53
2022/01/24 01:03:14;;;;;;;21.88;12.35;;;25.70;2201.60;;;;;;5091148;28;20058;-53
2022/01/24 01:06:05;;;;;;;27.75;13.73;;;0.90;2201.60;;;;;;5091291;28;20063;-53
2022/01/24 01:19:26;;;;;;;18.73;11.77;;;0.90;2201.60;;;;;;5091380;28;20028;-56
2022/01/24 01:21:52;;;;;;;26.15;14.82;;;0.70;2201.60;;;;;;5091100;28;20024;-56
2022/01/24 01:24:19;;;;;;;18.75;11.05;;;0.60;2201.60;;;;;;5091319;28;20142;-60
2022/01/24 01:26:51;;;;;;;21.38;11.40;;;0.70;2201.60;;;;;;5091086;28;20118;-54
2022/01/24 01:29:22;;;;;;;22.10;14.43;;;0.50;2201.60;;;;;;5091185;28;20024;-54
2022/01/24 01:55:40;;;;;;;32.33;16.40;;;12.90;2201.60;;;;;;5048167;28;20037;-58
2022/01/24 01:58:11;;;;;;;34.60;19.30;;;12.90;2201.60;;;;;;5048220;28;20468;-57
2022/01/24 02:00:39;;;;;;;27.13;17.27;;;13.00;2201.60;;;;;;5048125;28;20029;-52
2022/01/24 02:03:05;;;;;;;29.60;16.92;;;12.90;2201.60;;;;;;5047523;28;20147;-60
2022/01/24 02:05:31;;;;;;;29.42;16.17;;;12.90;2201.60;;;;;;5047722;28;20128;-53
2022/01/24 02:07:57;;;;;;;47.50;25.85;;;12.90;2201.60;;;;;;5048249;28;20502;-57
2022/01/24 02:10:24;;;;;;;38.25;22.70;;;13.00;2201.60;;;;;;5047712;28;20040;-55
2022/01/24 02:12:53;;;;;;;47.90;23.73;;;12.90;2201.60;;;;;;5048012;28;20434;-55
2022/01/24 02:16:00;;;;;;;42.88;24.30;;;13.00;2201.60;;;;;;5047971;28;20047;-58
2022/01/24 02:26:04;;;;;;;34.72;18.35;;;13.30;2201.60;;;;;;5047516;28;20570;-55
2022/01/24 02:28:42;;;;;;;27.52;15.90;;;13.40;2201.60;;;;;;5048006;28;20112;-61
2022/01/24 02:33:47;;;;;;;29.73;17.27;;;13.40;2201.60;;;;;;5090040;28;20088;-59
2022/01/24 02:36:21;;;;;;;32.83;16.50;;;13.40;2201.60;;;;;;5090056;28;20082;-60
2022/01/24 02:49:34;;;;;;;19.83;11.90;;;38.40;2201.60;;;;;;5090310;28;20042;-53
2022/01/24 02:52:07;;;;;;;20.35;12.95;;;38.40;2201.60;;;;;;5090126;28;20028;-53
2022/01/24 02:54:33;;;;;;;;;;;38.50;2201.60;;;;;;5092496;28;20036;-54
2022/01/24 02:57:01;;;;;;;19.45;9.95;;;38.40;2201.60;;;;;;5094363;28;19950;-53
2022/01/24 02:59:27;;;;;;;14.15;9.05;;;38.50;2201.60;;;;;;5094324;28;20044;-59
2022/01/24 03:01:53;;;;;;;19.95;11.30;;;38.50;2201.60;;;;;;5093836;28;20032;-60
2022/01/24 03:04:18;;;;;;;18.85;8.98;;;38.60;2201.60;;;;;;5093463;28;20075;-60
2022/01/24 03:06:45;;;;;;;76.30;30.85;;;38.50;2201.60;;;;;;5093529;28;20078;-60
2022/01/24 03:09:12;;;;;;;19.75;11.18;;;38.50;2201.60;;;;;;5093502;28;20024;-58
2022/01/24 03:14:14;;;;;;;16.13;9.35;;;38.70;2201.60;;;;;;5093564;28;20581;-53
2022/01/24 03:16:40;;;;;;;20.98;9.63;;;38.70;2201.60;;;;;;5092576;28;20431;-53
2022/01/24 03:19:06;;;;;;;14.77;10.82;;;38.70;2201.60;;;;;;5093514;28;20024;-53
2022/01/24 03:21:32;;;;;;;21.00;12.15;;;38.70;2201.60;;;;;;5093628;28;20035;-53
2022/01/24 03:23:58;;;;;;;15.30;10.38;;;38.70;2201.60;;;;;;5093634;28;20032;-60
2022/01/24 03:26:23;;;;;;;18.05;10.05;;;38.70;2201.60;;;;;;5093159;28;20043;-53
2022/01/24 03:28:49;;;;;;;14.65;8.25;;;38.80;2201.60;;;;;;5093396;28;20103;-62
2022/01/24 03:31:15;;;;;;;21.00;9.10;;;38.90;2201.60;;;;;;5093170;28;20174;-57
2022/01/24 03:33:41;;;;;;;23.58;10.63;;;38.90;2201.60;;;;;;5093078;28;20359;-55
2022/01/24 03:36:06;;;;;;;17.58;10.25;;;39.00;2201.60;;;;;;5093253;28;20024;-56
2022/01/24 03:38:32;;;;;;;22.05;10.93;;;39.00;2201.60;;;;;;5093230;28;20511;-53
2022/01/24 03:40:58;;;;;;;21.90;11.82;;;39.00;2201.60;;;;;;5093222;28;20432;-60
2022/01/24 03:43:24;;;;;;;16.98;8.45;;;39.10;2201.60;;;;;;5093136;28;20077;-61
2022/01/24 03:46:11;;;;;;;20.85;10.85;;;39.10;2201.60;;;;;;5092972;28;20028;-61
2022/01/24 03:48:47;;;;;;;15.02;8.60;;;39.20;2201.60;;;;;;5092988;28;20080;-57
2022/01/24 03:51:13;;;;;;;15.98;9.85;;;39.10;2201.60;;;;;;5092807;28;20107;-55
2022/01/24 03:53:40;;;;;;;18.65;11.65;;;39.20;2201.60;;;;;;5092946;28;20031;-53
2022/01/24 03:56:06;;;;;;;22.52;10.85;;;39.20;2201.60;;;;;;5092913;28;20386;-53
2022/01/24 03:58:33;;;;;;;17.77;9.35;;;39.20;2201.60;;;;;;5092697;28;20028;-59
2022/01/24 04:00:59;;;;;;;15.25;9.20;;;39.30;2201.60;;;;;;5093045;28;20051;-61
2022/01/24 04:03:25;;;;;;;23.17;10.35;;;39.30;2201.60;;;;;;5092271;28;20060;-58
2022/01/24 04:05:51;;;;;;;20.23;9.60;;;64.00;2201.60;;;;;;5091394;28;20504;-54
2022/01/24 04:08:17;;;;;;;19.42;10.60;;;64.10;2201.60;;;;;;5092867;28;20029;-58
2022/01/24 04:10:47;;;;;;;17.70;10.13;;;64.00;2201.60;;;;;;5092314;28;20544;-59
2022/01/24 04:13:36;;;;;;;20.58;11.82;;;64.20;2201.60;;;;;;5092343;28;20511;-56
2022/01/24 04:18:50;;;;;;;30.20;15.38;;;64.00;2201.60;;;;;;5092390;28;20058;-54
2022/01/24 04:21:28;;;;;;;17.83;11.18;;;64.10;2201.60;;;;;;5092373;28;20081;-53
2022/01/24 04:24:02;;;;;;;20.48;11.10;;;64.00;2201.60;;;;;;5092084;28;20382;-53
2022/01/24 04:26:28;;;;;;;17.85;11.02;;;64.00;2201.60;;;;;;5092274;28;20032;-53
2022/01/24 04:28:54;;;;;;;16.38;8.82;;;64.20;2201.60;;;;;;5092015;28;20056;-53
2022/01/24 04:31:20;;;;;;;26.17;11.27;;;64.20;2201.60;;;;;;5092362;28;20059;-60
2022/01/24 04:33:46;;;;;;;22.77;13.05;;;64.30;2201.60;;;;;;5092039;28;20508;-60
2022/01/24 04:36:12;;;;;;;21.48;10.80;;;64.20;2201.60;;;;;;5092102;28;20028;-60
2022/01/24 04:38:38;;;;;;;26.20;12.65;;;64.30;2201.60;;;;;;5092235;28;20462;-60
2022/01/24 04:41:12;;;;;;;18.73;11.73;;;64.40;2201.60;;;;;;5091684;28;20484;-59
2022/01/24 04:56:51;;;;;;;31.90;17.77;;;64.50;2201.60;;;;;;5091630;28;20023;-53
2022/01/24 04:59:17;;;;;;;42.55;23.77;;;64.40;2201.60;;;;;;5091724;28;20024;-53
2022/01/24 05:01:43;;;;;;;26.20;16.43;;;64.40;2201.60;;;;;;5091508;28;20363;-53
2022/01/24 05:04:08;;;;;;;25.70;14.60;;;64.50;2201.60;;;;;;5091355;28;20044;-53
2022/01/24 05:06:34;;;;;;;21.00;10.87;;;64.50;2201.60;;;;;;5091319;28;20499;-53
2022/01/24 05:09:00;;;;;;;17.73;10.68;;;64.60;2201.60;;;;;;5091559;28;20016;-54
2022/01/24 05:24:45;;;;;;;34.92;18.38;;;64.90;2201.60;;;;;;5093160;28;20031;-54
2022/01/24 05:27:11;;;;;;;23.27;14.07;;;64.90;2201.60;;;;;;5093600;28;20027;-55
2022/01/24 05:29:37;;;;;;;20.63;13.73;;;89.60;2201.60;;;;;;5094239;28;20069;-62
2022/01/24 05:32:05;;;;;;;57.20;23.25;;;89.60;2201.60;;;;;;5093863;28;20427;-58
2022/01/24 05:34:31;;;;;;;20.83;12.50;;;89.60;2201.60;;;;;;5093007;28;20062;-55
2022/01/24 05:36:56;;;;;;;24.53;11.97;;;89.60;2201.60;;;;;;5093041;28;20025;-57
2022/01/24 05:39:22;;;;;;;32.15;16.02;;;89.60;2201.60;;;;;;5092335;28;20107;-57
2022/01/24 05:41:48;;;;;;;19.50;12.20;;;89.70;2176.00;;;;;;5092655;28;20099;-54
2022/01/24 05:44:14;;;;;;;22.75;13.70;;;89.70;2176.00;;;;;;5092420;28;20382;-53
2022/01/24 05:46:40;;;;;;;21.67;11.45;;;89.90;2176.00;;;;;;5091980;28;20766;-53
2022/01/24 05:49:06;;;;;;;26.03;11.17;;;89.80;2176.00;;;;;;5091170;28;20065;-53
2022/01/24 05:51:33;;;;;;;23.73;13.52;;;89.80;2176.00;;;;;;5090842;28;20027;-52
2022/01/24 05:53:59;;;;;;;19.73;12.17;;;89.80;2176.00;;;;;;5091062;28;20070;-53
2022/01/24 05:56:24;;;;;;;29.92;15.23;;;89.80;2176.00;;;;;;5090512;28;20028;-52
2022/01/24 05:58:50;;;;;;;21.47;10.20;;;89.80;2176.00;;;;;;5090483;28;20034;-53
2022/01/24 06:01:16;;;;;;;24.83;15.37;;;89.80;2176.00;;;;;;5090850;28;20146;-53
2022/01/24 06:03:42;;;;;;;20.93;10.97;;;89.80;2176.00;;;;;;5090147;28;20043;-53
2022/01/24 06:06:08;;;;;;;31.93;16.47;;;89.70;2176.00;;;;;;5090785;28;20044;-58
2022/01/24 06:08:34;;;;;;;26.40;15.43;;;89.70;2176.00;;;;;;5090401;28;20454;-60
2022/01/24 06:11:00;;;;;;;32.22;14.55;;;89.80;2176.00;;;;;;5090607;28;20039;-60
2022/01/24 06:13:26;;;;;;;51.23;22.10;;;89.70;2176.00;;;;;;5090554;28;20028;-59
2022/01/24 06:15:52;;;;;;;32.85;19.17;;;89.60;2201.60;;;;;;5090140;28;20081;-55
2022/01/24 06:18:20;;;;;;;62.20;31.03;;;89.60;2201.60;;;;;;5090517;28;20099;-57
2022/01/24 06:20:46;;;;;;;86.83;47.43;;;89.60;2201.60;;;;;;5090576;28;20036;-56
2022/01/24 06:23:16;;;;;;;74.07;40.43;;;89.60;2201.60;;;;;;5090180;28;20016;-59
2022/01/24 06:25:42;;;;;;;87.77;47.50;;;89.60;2201.60;;;;;;5089971;28;20378;-53
2022/01/24 06:28:08;;;;;;;91.83;49.67;;;89.60;2201.60;;;;;;5089726;28;20025;-53
2022/01/24 06:30:33;;;;;;;92.50;51.07;;;64.90;2201.60;;;;;;5090375;28;20031;-53
2022/01/24 06:32:59;;;;;;;85.83;48.10;;;64.90;2201.60;;;;;;5090253;28;20025;-53
2022/01/24 06:35:25;;;;;;;68.43;39.10;;;64.80;2201.60;;;;;;5090076;28;20074;-57
2022/01/24 06:37:52;;;;;;;60.67;33.40;;;64.60;2201.60;;;;;;5089957;28;20024;-54
2022/01/24 06:40:18;;;;;;;52.67;26.60;;;64.50;2201.60;;;;;;5090107;28;20428;-59
2022/01/24 06:42:44;;;;;;;67.57;34.47;;;64.60;2201.60;;;;;;5089947;28;20016;-56
2022/01/24 06:45:10;;;;;;;80.50;42.10;;;64.50;2201.60;;;;;;5089882;28;20065;-53
2022/01/24 06:47:37;;;;;;;74.23;36.87;;;64.40;2201.60;;;;;;5090172;28;20020;-55
2022/01/24 06:50:04;;;;;;;60.28;34.53;;;64.40;2201.60;;;;;;5089933;28;20371;-53
2022/01/24 06:52:30;;;;;;;77.13;40.22;;;64.40;2201.60;;;;;;5090090;28;20028;-61
2022/01/24 06:54:55;;;;;;;68.97;34.73;;;64.30;2201.60;;;;;;5090024;28;20028;-53
2022/01/24 06:57:21;;;;;;;80.82;46.72;;;64.20;2201.60;;;;;;5089739;28;20107;-58
2022/01/24 06:59:47;;;;;;;64.67;37.97;;;64.20;2201.60;;;;;;5089972;28;20023;-56
2022/01/24 07:02:14;;;;;;;69.20;39.13;;;64.00;2201.60;;;;;;5089732;28;20031;-56
2022/01/24 07:04:41;;;;;;;60.35;35.10;;;39.30;2201.60;;;;;;5089556;28;20076;-53
2022/01/24 07:07:08;;;;;;;54.08;25.13;;;39.20;2201.60;;;;;;5089826;28;20043;-55
2022/01/24 07:09:34;;;;;;;54.10;32.28;;;39.30;2201.60;;;;;;5089364;28;20048;-60
2022/01/24 07:12:00;;;;;;;63.28;35.70;;;39.30;2201.60;;;;;;5090008;28;20024;-59
2022/01/24 07:14:26;;;;;;;53.37;30.53;;;39.20;2201.60;;;;;;5089563;28;20111;-60
2022/01/24 07:19:29;;;;;;;90.93;52.05;;;39.20;2201.60;;;;;;5089648;28;20102;-62
2022/01/24 07:22:00;;;;;;;100.90;56.55;;;39.00;2201.60;;;;;;5089451;28;20063;-60
2022/01/24 07:24:26;;;;;;;135.68;76.13;;;39.10;2201.60;;;;;;5089753;28;20035;-61
2022/01/24 07:26:53;;;;;;;91.53;48.35;;;38.80;2201.60;;;;;;5089161;28;20032;-57
2022/01/24 07:29:19;;;;;;;91.45;52.92;;;39.10;2201.60;;;;;;5089678;28;20016;-53
2022/01/24 07:31:49;;;;;;;108.13;55.35;;;39.10;2201.60;;;;;;5089481;28;20028;-57
2022/01/24 07:34:15;;;;;;;103.70;54.63;;;38.90;2201.60;;;;;;5089211;28;20035;-59
2022/01/24 07:36:42;;;;;;;107.35;55.28;;;38.70;2201.60;;;;;;5089439;28;20032;-61
2022/01/24 07:39:08;;;;;;;110.15;59.13;;;38.50;2201.60;;;;;;5089385;28;20066;-61
2022/01/24 07:41:42;;;;;;;96.20;49.58;;;38.50;2201.60;;;;;;5091449;28;20020;-57
2022/01/24 07:44:07;;;;;;;116.35;61.65;;;38.50;2201.60;;;;;;5093279;28;20071;-61
2022/01/24 07:46:34;;;;;;;90.97;47.30;;;38.60;2201.60;;;;;;5093021;28;20032;-60
2022/01/24 07:49:02;;;;;;;81.03;44.97;;;38.70;2201.60;;;;;;5093311;28;20012;-61
2022/01/24 07:51:28;;;;;;;98.15;49.70;;;38.70;2201.60;;;;;;5093234;28;20077;-61
2022/01/24 07:53:53;;;;;;;122.70;61.60;;;38.40;2201.60;;;;;;5092783;28;20420;-55
2022/01/24 07:56:19;;;;;;;64.60;31.98;;;13.60;2201.60;;;;;;5092765;28;20031;-53
2022/01/24 07:58:45;;;;;;;44.67;24.13;;;13.50;2201.60;;;;;;5091383;28;20424;-54
2022/01/24 08:01:15;;;;;;;48.42;25.27;;;13.40;2201.60;;;;;;5092948;28;20115;-59
2022/01/24 08:03:42;;;;;;;26.02;15.32;;;13.30;2201.60;;;;;;5092272;28;20513;-62
2022/01/24 08:06:08;;;;;;;32.35;18.35;;;13.20;2201.60;;;;;;5092620;28;20036;-54
2022/01/24 08:08:33;;;;;;;41.28;25.45;;;13.40;2201.60;;;;;;5092618;28;20020;-55
2022/01/24 08:10:59;;;;;;;46.70;32.35;;;13.20;2201.60;;;;;;5092698;28;20058;-55
2022/01/24 08:13:25;;;;;;;45.40;27.10;;;12.90;2201.60;;;;;;5092582;28;20110;-56
2022/01/24 08:15:51;;;;;;;41.97;26.88;;;0.10;2201.60;;;;;;5092257;28;20035;-55
2022/01/24 08:18:17;;;;;;;40.28;21.58;;;13.10;2201.60;;;;;;5092602;28;20085;-57
2022/01/24 08:20:43;;;;;;;41.33;24.33;;;0.00;2201.60;;;;;;5092221;28;20028;-54
2022/01/24 08:23:10;;;;;;;34.28;21.05;;;0.20;2201.60;;;;;;5092396;28;20386;-57
2022/01/24 08:25:36;;;;;;;29.33;17.13;;;0.60;2201.60;;;;;;5092106;28;20097;-55
2022/01/24 08:28:02;;;;;;;34.03;18.13;;;0.70;2201.60;;;;;;5092096;28;20454;-55
2022/01/24 08:30:28;;;;;;;41.45;22.45;;;0.90;2201.60;;;;;;5092648;28;20043;-54
2022/01/24 08:32:54;;;;;;;39.88;25.77;;;0.90;2201.60;;;;;;5092010;28;20031;-53
2022/01/24 08:35:21;;;;;;;36.63;22.05;;;25.60;2201.60;;;;;;5092106;28;20028;-54
2022/01/24 08:37:47;;;;;;;42.70;22.23;;;0.80;2201.60;;;;;;5092081;28;20040;-56
2022/01/24 08:40:21;;;;;;;41.65;22.05;;;0.80;2201.60;;;;;;5091963;28;20028;-55
2022/01/24 08:42:57;;;;;;;32.13;18.60;;;0.60;2201.60;;;;;;5092014;28;20454;-54
2022/01/24 08:48:09;;;;;;;28.98;20.25;;;0.90;2201.60;;;;;;5092154;28;20512;-54
2022/01/24 08:50:35;;;;;;;30.10;14.48;;;0.90;2201.60;;;;;;5091800;28;20028;-55
2022/01/24 08:53:03;;;;;;;31.50;23.73;;;25.70;2201.60;;;;;;5091285;28;20016;-56
2022/01/24 08:55:33;;;;;;;26.85;14.95;;;51.40;2227.20;;;;;;5091888;28;20033;-55
2022/01/24 08:57:59;;;;;;;24.10;13.38;;;51.50;2150.40;;;;;;5092101;28;20024;-55
2022/01/24 09:00:26;;;;;;;24.85;16.23;;;76.90;2099.20;;;;;;5091801;28;20474;-56
2022/01/24 09:02:52;;;;;;;19.60;13.45;;;77.40;1945.60;;;;;;5091343;28;20051;-55
2022/01/24 09:05:21;;;;;;;17.45;12.27;;;153.80;1766.40;;;;;;5091554;28;20032;-55
2022/01/24 09:07:47;;;;;;;22.50;13.60;;;204.80;1612.80;;;;;;5091338;28;20032;-56
2022/01/24 09:10:13;;;;;;;21.83;13.02;;;205.10;1510.40;;;;;;5091093;28;20024;-56
2022/01/24 09:12:39;;;;;;;48.17;16.45;;;230.70;1433.60;;;;;;5091183;28;20082;-55
2022/01/24 09:15:05;;;;;;;15.45;11.30;;;230.40;1408.00;;;;;;5091138;28;20035;-55
2022/01/24 09:17:31;;;;;;;35.88;22.15;;;205.60;1433.60;;;;;;5090904;28;20031;-56
2022/01/24 09:19:57;;;;;;;67.43;52.55;;;179.70;1510.40;;;;;;5091316;28;20107;-56
2022/01/24 09:22:22;;;;;;;33.42;27.90;;;179.70;1510.40;;;;;;5090803;28;20028;-55
2022/01/24 09:24:48;;;;;;;27.55;21.65;;;179.30;1561.60;;;;;;5091212;28;20024;-54
2022/01/24 09:27:15;;;;;;;22.50;15.32;;;179.20;1561.60;;;;;;5091032;28;20549;-55
2022/01/24 09:29:41;;;;;;;19.25;11.45;;;205.20;1484.80;;;;;;5090792;28;20028;-54
2022/01/24 09:32:07;;;;;;;18.27;10.50;;;205.30;1484.80;;;;;;5091193;28;20052;-56
2022/01/24 09:34:33;;;;;;;17.10;12.65;;;230.90;1382.40;;;;;;5090732;28;20461;-56
2022/01/24 09:37:00;;;;;;;18.42;14.15;;;231.20;1331.20;;;;;;5091048;28;20085;-54
2022/01/24 09:39:26;;;;;;;50.78;43.67;;;256.20;1331.20;;;;;;5091237;28;20020;-55
2022/01/24 09:41:53;;;;;;;133.43;119.00;;;231.30;1331.20;;;;;;5090495;28;20024;-57
2022/01/24 09:44:19;;;;;;;34.17;27.65;;;230.50;1382.40;;;;;;5090998;28;20024;-56
2022/01/24 09:46:46;;;;;;;146.65;131.93;;;230.70;1356.80;;;;;;5090710;28;20036;-57
2022/01/24 09:49:12;;;;;;;24.75;20.77;;;205.70;1382.40;;;;;;5090690;28;20493;-56
2022/01/24 09:51:39;;;;;;;14.02;11.25;;;204.80;1433.60;;;;;;5090948;28;20145;-55
2022/01/24 09:54:07;;;;;;;17.63;13.07;;;179.80;1459.20;;;;;;5090584;28;20028;-55
2022/01/24 09:56:34;;;;;;;16.60;13.15;;;180.10;1433.60;;;;;;5090553;28;20030;-55
2022/01/24 09:59:00;;;;;;;17.58;11.90;;;204.90;1433.60;;;;;;5090907;28;20107;-55
2022/01/24 10:01:27;;;;;;;14.82;10.00;;;205.10;1408.00;;;;;;5090856;28;20031;-56
2022/01/24 10:04:09;;;;;;;66.03;49.63;;;179.90;1433.60;;;;;;5089371;28;20044;-59
2022/01/24 10:07:07;;;;;;;25.00;21.30;;;179.50;1459.20;;;;;;5090032;28;20114;-57
2022/01/24 10:09:42;;;;;;;64.10;57.97;;;179.80;1484.80;;;;;;5089963;28;20028;-57
2022/01/24 10:17:50;;;;;;;32.40;22.63;;;179.60;1484.80;;;;;;5090129;28;20428;-56
2022/01/24 10:20:26;;;;;;;21.92;17.65;;;153.70;1561.60;;;;;;5090321;28;20028;-54
2022/01/24 10:23:10;;;;;;;34.90;26.75;;;128.50;1612.80;;;;;;5090040;28;20073;-54
2022/01/24 10:26:08;;;;;;;20.45;14.13;;;102.70;1689.60;;;;;;5089331;28;20070;-53
2022/01/24 10:28:41;;;;;;;54.85;30.45;;;77.40;1792.00;;;;;;5065861;28;20024;-54
2022/01/24 10:31:07;;;;;;;14.55;10.23;;;77.40;1766.40;;;;;;5066304;28;20051;-55
2022/01/24 10:33:50;;;;;;;16.02;11.32;;;77.00;1843.20;;;;;;5066104;28;20498;-56
2022/01/24 10:36:26;;;;;;;14.80;10.07;;;51.90;1868.80;;;;;;5063818;28;20425;-54
2022/01/24 10:39:06;;;;;;;17.98;10.73;;;51.60;1894.40;;;;;;5066073;28;20020;-54
2022/01/24 10:41:50;;;;;;;15.60;10.40;;;51.20;1945.60;;;;;;5065887;28;20112;-56
2022/01/24 10:44:27;;;;;;;13.93;9.32;;;51.30;1945.60;;;;;;5063544;28;20450;-55
2022/01/24 10:46:53;;;;;;;17.85;10.48;;;26.30;1945.60;;;;;;5065928;28;20039;-53
2022/01/24 10:49:31;;;;;;;16.83;10.20;;;26.40;1945.60;;;;;;5066175;28;20029;-55
2022/01/24 10:52:10;;;;;;;23.80;12.60;;;26.40;1945.60;;;;;;5066286;28;20442;-55
2022/01/24 10:54:36;;;;;;;22.15;14.80;;;51.30;1971.20;;;;;;5063582;28;20044;-54
2022/01/24 10:57:02;;;;;;;22.42;14.23;;;51.50;1945.60;;;;;;5065877;28;20094;-52
2022/01/24 10:59:28;;;;;;;18.13;9.77;;;51.30;1971.20;;;;;;5066398;28;20127;-54
2022/01/24 11:01:56;;;;;;;13.95;8.35;;;51.20;1971.20;;;;;;5065843;28;20430;-53
2022/01/24 11:04:26;;;;;;;18.50;12.23;;;26.40;1971.20;;;;;;5076715;28;20044;-53
2022/01/24 11:06:57;;;;;;;15.93;9.70;;;26.50;1971.20;;;;;;5088190;28;20123;-55
2022/01/24 11:09:24;;;;;;;20.50;11.02;;;51.20;1971.20;;;;;;5086935;28;20081;-54
2022/01/24 11:12:00;;;;;;;18.17;9.70;;;51.40;1971.20;;;;;;5088404;28;20016;-55
2022/01/24 11:14:27;;;;;;;27.67;9.60;;;51.30;1971.20;;;;;;5084791;28;20102;-53
2022/01/24 11:16:56;;;;;;;17.13;8.82;;;26.50;1971.20;;;;;;5092159;28;20028;-54
2022/01/24 11:19:29;;;;;;;13.48;7.90;;;26.50;1971.20;;;;;;5092115;28;20077;-55
2022/01/24 11:22:00;;;;;;;13.88;7.65;;;26.40;1945.60;;;;;;5091950;28;20038;-58
2022/01/24 11:24:38;;;;;;;14.02;7.85;;;26.20;1971.20;;;;;;5092230;28;20504;-55
2022/01/24 11:27:05;;;;;;;17.55;9.65;;;26.00;1971.20;;;;;;5089759;28;20584;-55
2022/01/24 11:29:31;;;;;;;17.58;9.07;;;26.40;1945.60;;;;;;5092171;28;20032;-53
2022/01/24 11:32:16;;;;;;;16.40;8.10;;;26.50;1945.60;;;;;;5089230;28;20028;-55
2022/01/24 11:34:48;;;;;;;15.70;8.25;;;26.50;1945.60;;;;;;5089657;28;20071;-53
2022/01/24 11:37:30;;;;;;;114.10;60.10;;;26.50;1920.00;;;;;;5091965;28;20016;-52
2022/01/24 11:39:56;;;;;;;20.67;11.85;;;51.30;1971.20;;;;;;5093230;28;20386;-55
2022/01/24 11:42:30;;;;;;;20.75;10.32;;;51.30;1920.00;;;;;;5093000;28;20039;-55
2022/01/24 11:44:59;;;;;;;16.87;10.10;;;51.30;1945.60;;;;;;5093279;28;20039;-54
2022/01/24 11:47:26;;;;;;;32.30;18.98;;;51.50;1945.60;;;;;;5092411;28;20219;-53
2022/01/24 11:49:53;;;;;;;21.55;13.48;;;51.40;1894.40;;;;;;5091640;28;20756;-55
2022/01/24 11:52:30;;;;;;;22.35;13.57;;;26.10;1894.40;;;;;;5091803;28;20020;-53
2022/01/24 11:57:39;;;;;;;;;;;26.50;1920.00;;;;;;5091053;28;20496;-54
2022/01/24 12:00:05;;;;;;;29.60;14.90;;;26.20;1920.00;;;;;;5091160;28;19912;-53
2022/01/24 12:02:47;;;;;;;25.88;16.55;;;26.40;1894.40;;;;;;5091033;28;20575;-56
2022/01/24 12:05:20;;;;;;;17.52;10.93;;;51.30;1920.00;;;;;;5089443;28;20028;-54
2022/01/24 12:07:50;;;;;;;12.23;9.45;;;51.20;1945.60;;;;;;5091268;28;20016;-54
2022/01/24 12:10:26;;;;;;;13.77;8.90;;;51.40;1945.60;;;;;;5091054;28;20016;-52
2022/01/24 12:13:36;;;;;;;18.77;10.65;;;51.70;1894.40;;;;;;5072264;28;20099;-54
2022/01/24 12:16:07;;;;;;;16.40;8.90;;;51.70;1868.80;;;;;;5072114;28;20039;-54
2022/01/24 12:18:33;;;;;;;23.73;11.13;;;51.70;1894.40;;;;;;5071940;28;20032;-55
2022/01/24 12:21:05;;;;;;;16.27;8.88;;;51.70;1894.40;;;;;;5072285;28;20052;-54
2022/01/24 12:23:46;;;;;;;14.10;9.35;;;51.90;1894.40;;;;;;5075389;28;20055;-55
2022/01/24 12:26:12;;;;;;;17.27;9.82;;;51.90;1868.80;;;;;;5087215;28;20063;-59
2022/01/24 12:28:47;;;;;;;15.18;8.65;;;51.80;1894.40;;;;;;5090769;28;20047;-56
2022/01/24 12:31:36;;;;;;;16.65;9.55;;;51.90;1868.80;;;;;;5088097;28;20030;-53
2022/01/24 12:34:28;;;;;;;15.88;8.60;;;51.70;1894.40;;;;;;5089351;28;20020;-55
2022/01/24 12:37:12;;;;;;;13.73;9.02;;;52.00;1894.40;;;;;;5088256;28;20027;-55
2022/01/24 12:40:01;;;;;;;18.75;11.68;;;52.00;1894.40;;;;;;5089095;28;20055;-56
2022/01/24 12:42:40;;;;;;;25.17;13.82;;;52.00;1894.40;;;;;;5090186;28;20493;-55
2022/01/24 12:48:10;;;;;;;17.73;10.13;;;52.00;1894.40;;;;;;5090279;28;20055;-55
2022/01/24 12:50:36;;;;;;;17.73;9.95;;;51.90;1894.40;;;;;;5090454;28;20459;-54
2022/01/24 12:53:10;;;;;;;28.13;13.40;;;52.00;1894.40;;;;;;5090004;28;20032;-55
2022/01/24 12:55:36;;;;;;;20.02;9.65;;;52.10;1894.40;;;;;;5088344;28;20070;-53
2022/01/24 12:58:02;;;;;;;47.78;28.42;;;52.00;1894.40;;;;;;5090090;28;20028;-55
2022/01/24 13:00:29;;;;;;;19.55;11.98;;;52.00;1894.40;;;;;;5090297;28;20059;-56
2022/01/24 13:02:55;;;;;;;37.25;21.55;;;52.00;1894.40;;;;;;5091045;28;20109;-55
2022/01/24 13:05:21;;;;;;;32.40;19.38;;;76.80;1843.20;;;;;;5090499;28;20044;-56
2022/01/24 13:07:55;;;;;;;29.15;18.40;;;76.90;1843.20;;;;;;5091558;28;20078;-54
2022/01/24 13:10:26;;;;;;;41.53;22.85;;;76.90;1843.20;;;;;;5091265;28;20020;-56
2022/01/24 13:13:06;;;;;;;38.35;22.35;;;76.80;1868.80;;;;;;5091135;28;20111;-55
2022/01/24 13:21:31;;;;;;;27.55;17.92;;;26.30;1945.60;;;;;;5091648;28;20035;-57
2022/01/24 13:24:00;;;;;;;42.92;25.08;;;26.20;1971.20;;;;;;5090783;28;20466;-54
2022/01/24 13:26:26;;;;;;;42.97;23.80;;;26.00;1996.80;;;;;;5091010;28;20051;-59
2022/01/24 13:29:03;;;;;;;40.28;23.80;;;26.30;1971.20;;;;;;5091307;28;20024;-56
2022/01/24 13:31:29;;;;;;;41.67;23.95;;;26.30;1971.20;;;;;;5091118;28;20032;-56
2022/01/24 13:33:57;;;;;;;50.72;28.10;;;26.30;1971.20;;;;;;5090563;28;20353;-56
2022/01/24 13:36:22;;;;;;;65.43;37.92;;;25.80;1996.80;;;;;;5090581;28;20028;-55
2022/01/24 13:38:52;;;;;;;46.05;23.08;;;25.90;2022.40;;;;;;5090748;28;20032;-56
2022/01/24 13:41:27;;;;;;;60.97;32.03;;;25.70;1945.60;;;;;;5090631;28;20471;-54
2022/01/24 13:44:01;;;;;;;43.20;23.90;;;25.90;1971.20;;;;;;5090565;28;20374;-56
2022/01/24 13:46:39;;;;;;;41.58;22.70;;;25.80;1971.20;;;;;;5090683;28;20474;-56
2022/01/24 13:49:16;;;;;;;28.13;15.63;;;25.80;1945.60;;;;;;5090406;28;20017;-56
2022/01/24 13:51:51;;;;;;;35.90;20.60;;;0.90;1868.80;;;;;;5088287;28;20129;-54
2022/01/24 13:54:19;;;;;;;24.60;16.60;;;0.90;1894.40;;;;;;5089091;28;20450;-55
2022/01/24 13:56:50;;;;;;;28.60;16.63;;;0.70;1894.40;;;;;;5088357;28;20028;-58
2022/01/24 13:59:21;;;;;;;29.15;16.27;;;0.70;1868.80;;;;;;5085379;28;20401;-54
2022/01/24 14:01:59;;;;;;;28.95;16.13;;;0.80;1894.40;;;;;;5088058;28;20020;-55
2022/01/24 14:04:46;;;;;;;41.05;21.60;;;25.70;1868.80;;;;;;5087879;28;20137;-55
2022/01/24 14:07:32;;;;;;;27.33;16.58;;;25.80;1843.20;;;;;;5088460;28;20040;-55
2022/01/24 14:10:01;;;;;;;34.40;19.50;;;0.90;1817.60;;;;;;5088513;28;20050;-54
2022/01/24 14:12:50;;;;;;;88.28;49.22;;;0.90;1817.60;;;;;;5088370;28;20056;-58
2022/01/24 14:15:32;;;;;;;42.30;23.02;;;0.70;1817.60;;;;;;5088406;28;20107;-55
2022/01/24 14:21:07;;;;;;;55.22;30.30;;;0.40;1843.20;;;;;;5088136;28;20054;-57
2022/01/24 14:23:38;;;;;;;61.20;30.63;;;0.60;1868.80;;;;;;5088163;28;20489;-54
2022/01/24 14:26:16;;;;;;;88.25;50.83;;;0.80;1868.80;;;;;;5088102;28;20036;-54
2022/01/24 14:28:43;;;;;;;66.18;38.53;;;0.90;1894.40;;;;;;5088101;28;20028;-58
2022/01/24 14:31:12;;;;;;;190.48;91.65;;;0.80;1894.40;;;;;;5088065;28;20039;-54
2022/01/24 14:33:39;;;;;;;166.65;79.95;;;0.70;1894.40;;;;;;5088281;28;20028;-55